Time;durP1;ratioP1;P1;durP2;ratioP2;P2;SDS_P1;SDS_P2;PMS_P1;PMS_P2;Temp;Humidity;BMP_temperature;BMP_pressure;BME280_temperature;BME280_humidity;BME280_pressure;Samples;Min_cycle;Max_cycle;Signal;HPM_P1;HPM_P2
2023/08/29 00:01:51;;;;;;;3.37;3.17;;;12.50;99.90;;;;;;5055026;28;20918;-67
2023/08/29 00:04:17;;;;;;;3.47;3.00;;;12.40;99.90;;;;;;5053570;28;20174;-71
2023/08/29 00:06:42;;;;;;;5.33;2.77;;;12.40;99.90;;;;;;5054218;28;20167;-70
2023/08/29 00:09:08;;;;;;;3.57;3.00;;;12.40;99.90;;;;;;5055057;28;20201;-73
2023/08/29 00:11:34;;;;;;;3.03;2.83;;;12.40;99.90;;;;;;5042598;28;20745;-71
2023/08/29 00:14:00;;;;;;;3.50;3.20;;;12.40;99.90;;;;;;5035022;28;20199;-67
2023/08/29 00:16:26;;;;;;;3.80;3.50;;;12.40;99.90;;;;;;5034159;28;20436;-72
2023/08/29 00:18:51;;;;;;;3.10;2.90;;;12.40;99.90;;;;;;5035450;28;20667;-67
2023/08/29 00:21:17;;;;;;;3.00;2.70;;;12.40;99.90;;;;;;5054940;28;20198;-67
2023/08/29 00:23:43;;;;;;;4.03;2.77;;;12.40;99.90;;;;;;5054711;28;20190;-68
2023/08/29 00:26:08;;;;;;;3.40;3.00;;;12.30;99.90;;;;;;5042429;28;20183;-72
2023/08/29 00:28:34;;;;;;;4.20;2.67;;;12.30;99.90;;;;;;5033477;28;20199;-67
2023/08/29 00:31:00;;;;;;;2.80;2.60;;;12.30;99.90;;;;;;5034732;28;20168;-73
2023/08/29 00:33:25;;;;;;;3.23;2.93;;;12.20;99.90;;;;;;5048603;28;20226;-75
2023/08/29 00:35:51;;;;;;;4.93;3.23;;;12.20;99.90;;;;;;5036468;28;20178;-67
2023/08/29 00:38:17;;;;;;;4.13;2.97;;;12.30;99.90;;;;;;5033608;28;20198;-67
2023/08/29 00:40:43;;;;;;;3.13;2.93;;;12.20;99.90;;;;;;5034316;28;20179;-67
2023/08/29 00:43:08;;;;;;;3.93;3.17;;;12.20;99.90;;;;;;5033500;28;20418;-67
2023/08/29 00:45:37;;;;;;;5.30;4.50;;;12.20;99.90;;;;;;5033532;28;20207;-71
2023/08/29 00:48:04;;;;;;;2.80;2.60;;;12.20;99.90;;;;;;5034206;28;20187;-72
2023/08/29 00:50:30;;;;;;;3.43;3.23;;;12.20;99.90;;;;;;5050887;28;20441;-67
2023/08/29 00:53:00;;;;;;;3.03;2.60;;;12.20;99.90;;;;;;5054198;28;20510;-73
2023/08/29 00:55:28;;;;;;;4.70;2.53;;;12.20;99.90;;;;;;5043745;28;20766;-68
2023/08/29 00:57:59;;;;;;;3.00;2.70;;;12.10;99.90;;;;;;5032877;28;20425;-70
2023/08/29 01:00:26;;;;;;;4.07;3.17;;;12.10;99.90;;;;;;5033963;28;20398;-67
2023/08/29 01:02:52;;;;;;;3.60;3.30;;;12.10;99.90;;;;;;5033017;28;20963;-72
2023/08/29 01:05:20;;;;;;;3.03;2.83;;;12.00;99.90;;;;;;5047306;28;20416;-67
2023/08/29 01:07:50;;;;;;;5.40;5.00;;;12.00;99.90;;;;;;5053862;28;20452;-73
2023/08/29 01:10:15;;;;;;;3.47;3.27;;;12.00;99.90;;;;;;5043574;28;20441;-73
2023/08/29 01:12:55;;;;;;;8.13;3.70;;;12.00;99.90;;;;;;5033966;28;20517;-68
2023/08/29 01:15:27;;;;;;;3.07;2.87;;;11.90;99.90;;;;;;5033038;28;20201;-73
2023/08/29 01:17:56;;;;;;;3.00;2.80;;;11.90;99.90;;;;;;5032904;28;20380;-74
2023/08/29 01:20:24;;;;;;;3.70;3.13;;;11.90;99.90;;;;;;5053200;28;20369;-71
2023/08/29 01:23:12;;;;;;;3.20;3.00;;;11.90;99.90;;;;;;5053664;28;21028;-71
2023/08/29 01:26:05;;;;;;;5.40;3.53;;;11.90;99.90;;;;;;5047683;28;20453;-73
2023/08/29 01:28:32;;;;;;;2.90;2.80;;;11.90;99.90;;;;;;5053309;28;20993;-74
2023/08/29 01:30:58;;;;;;;3.70;3.50;;;11.90;99.90;;;;;;5052475;28;20459;-73
2023/08/29 01:33:25;;;;;;;3.50;3.30;;;11.80;99.90;;;;;;5051753;28;20653;-71
2023/08/29 01:35:51;;;;;;;3.50;3.30;;;11.80;99.90;;;;;;5051982;28;20406;-73
2023/08/29 01:38:17;;;;;;;4.73;3.93;;;11.80;99.90;;;;;;5052642;28;20914;-71
2023/08/29 01:40:43;;;;;;;4.30;3.90;;;11.80;99.90;;;;;;5035369;28;20179;-67
2023/08/29 01:43:09;;;;;;;4.37;3.77;;;11.80;99.90;;;;;;5033482;28;20168;-68
2023/08/29 01:45:35;;;;;;;6.30;4.10;;;11.80;99.90;;;;;;5032435;28;20373;-74
2023/08/29 01:48:01;;;;;;;3.57;3.27;;;11.80;99.90;;;;;;5042324;28;20282;-70
2023/08/29 01:50:29;;;;;;;4.60;4.20;;;11.80;99.90;;;;;;5053059;28;20178;-73
2023/08/29 01:52:55;;;;;;;4.53;4.23;;;11.80;99.90;;;;;;5032560;28;20440;-73
2023/08/29 01:55:22;;;;;;;5.97;4.47;;;11.90;99.90;;;;;;5031547;28;20411;-72
2023/08/29 01:57:51;;;;;;;4.47;4.13;;;11.90;99.90;;;;;;5032583;28;20426;-67
2023/08/29 02:00:18;;;;;;;4.10;3.80;;;11.90;99.90;;;;;;5032672;28;20397;-73
2023/08/29 02:02:44;;;;;;;5.03;4.43;;;11.90;99.90;;;;;;5032913;28;20475;-69
2023/08/29 02:05:10;;;;;;;4.80;4.47;;;11.90;99.90;;;;;;5031797;28;20438;-73
2023/08/29 02:07:36;;;;;;;4.63;4.23;;;11.90;99.90;;;;;;5032700;28;20422;-73
2023/08/29 02:10:02;;;;;;;5.50;5.10;;;12.00;99.90;;;;;;5032140;28;20998;-73
2023/08/29 02:12:28;;;;;;;6.23;5.63;;;11.90;99.90;;;;;;5043287;28;20244;-72
2023/08/29 02:14:53;;;;;;;5.90;5.40;;;12.00;99.90;;;;;;5035995;28;20434;-70
2023/08/29 02:17:19;;;;;;;5.77;5.20;;;12.00;99.90;;;;;;5031092;28;20726;-73
2023/08/29 02:19:45;;;;;;;5.30;4.90;;;12.00;99.90;;;;;;5044407;28;20180;-71
2023/08/29 02:22:11;;;;;;;7.63;5.47;;;12.00;99.90;;;;;;5032949;28;20206;-72
2023/08/29 02:24:37;;;;;;;5.23;4.80;;;12.00;99.90;;;;;;5032487;28;20287;-69
2023/08/29 02:27:04;;;;;;;5.23;4.90;;;12.00;99.90;;;;;;5030832;28;20416;-68
2023/08/29 02:29:30;;;;;;;4.63;4.23;;;11.90;99.90;;;;;;5043643;28;20436;-67
2023/08/29 02:31:56;;;;;;;4.33;3.93;;;11.90;99.90;;;;;;5050982;28;20950;-71
2023/08/29 02:34:21;;;;;;;4.20;4.00;;;11.90;99.90;;;;;;5050593;28;20407;-74
2023/08/29 02:36:47;;;;;;;5.03;4.53;;;11.80;99.90;;;;;;5032335;28;20660;-71
2023/08/29 02:39:13;;;;;;;6.60;4.50;;;11.80;99.90;;;;;;5032702;28;20215;-73
2023/08/29 02:41:38;;;;;;;4.27;3.87;;;11.80;99.90;;;;;;5046642;28;20171;-66
2023/08/29 02:44:04;;;;;;;4.83;4.43;;;11.80;99.90;;;;;;5051671;28;20268;-73
2023/08/29 02:46:30;;;;;;;6.37;4.63;;;11.80;99.90;;;;;;5051821;28;20263;-74
2023/08/29 02:48:56;;;;;;;4.53;4.23;;;11.70;99.90;;;;;;5049738;28;20203;-74
2023/08/29 02:51:21;;;;;;;5.20;4.80;;;11.70;99.90;;;;;;5039372;28;20522;-68
2023/08/29 02:53:47;;;;;;;5.00;4.60;;;11.70;99.90;;;;;;5032597;28;20188;-69
2023/08/29 02:56:13;;;;;;;5.20;4.80;;;11.70;99.90;;;;;;5030771;28;20263;-67
2023/08/29 02:58:38;;;;;;;5.30;4.83;;;11.70;99.90;;;;;;5032573;28;20188;-68
2023/08/29 03:01:09;;;;;;;4.40;4.03;;;11.60;99.90;;;;;;5031222;28;20202;-73
2023/08/29 03:03:35;;;;;;;7.53;4.60;;;11.60;99.90;;;;;;5036052;28;20182;-74
2023/08/29 03:06:01;;;;;;;4.60;4.30;;;11.60;99.90;;;;;;5046135;28;20426;-69
2023/08/29 03:08:27;;;;;;;5.57;4.47;;;11.50;99.90;;;;;;5032114;28;20396;-67
2023/08/29 03:10:53;;;;;;;5.53;4.60;;;11.50;99.90;;;;;;5033418;28;20175;-67
2023/08/29 03:13:18;;;;;;;5.20;4.80;;;11.50;99.90;;;;;;5032466;28;20252;-73
2023/08/29 03:15:45;;;;;;;5.10;4.70;;;11.50;99.90;;;;;;5031565;28;20925;-67
2023/08/29 03:18:11;;;;;;;8.30;5.60;;;11.50;99.90;;;;;;5032201;28;20549;-70
2023/08/29 03:20:40;;;;;;;5.30;4.33;;;11.50;99.90;;;;;;5050643;28;20434;-67
2023/08/29 03:23:06;;;;;;;4.83;4.40;;;11.40;99.90;;;;;;5033011;28;20412;-69
2023/08/29 03:25:32;;;;;;;4.77;4.47;;;11.40;99.90;;;;;;5031047;28;20388;-73
2023/08/29 03:27:57;;;;;;;4.70;4.40;;;11.40;99.90;;;;;;5032824;28;20231;-67
2023/08/29 03:30:26;;;;;;;6.43;4.70;;;11.40;99.90;;;;;;5034922;28;20202;-74
2023/08/29 03:32:51;;;;;;;5.80;5.30;;;11.30;99.90;;;;;;5034412;28;20664;-70
2023/08/29 03:35:18;;;;;;;4.77;4.30;;;11.30;99.90;;;;;;5048124;28;20463;-74
2023/08/29 03:37:44;;;;;;;4.80;4.40;;;11.30;99.90;;;;;;5054329;28;20422;-73
2023/08/29 03:40:11;;;;;;;4.97;4.50;;;11.30;99.90;;;;;;5055636;28;20869;-73
2023/08/29 03:42:37;;;;;;;4.90;4.50;;;11.30;99.90;;;;;;5038332;28;20411;-67
2023/08/29 03:45:03;;;;;;;4.47;4.13;;;11.30;99.90;;;;;;5033448;28;20412;-75
2023/08/29 03:47:30;;;;;;;5.30;4.83;;;11.30;99.90;;;;;;5035339;28;20180;-74
2023/08/29 03:49:56;;;;;;;5.43;4.80;;;11.30;99.90;;;;;;5042697;28;20416;-73
2023/08/29 03:52:23;;;;;;;7.17;4.93;;;11.30;99.90;;;;;;5041267;28;20435;-67
2023/08/29 03:54:49;;;;;;;4.63;4.33;;;11.30;99.90;;;;;;5035326;28;20163;-74
2023/08/29 03:57:15;;;;;;;6.20;5.70;;;11.20;99.90;;;;;;5034287;28;21616;-70
2023/08/29 03:59:40;;;;;;;5.00;4.70;;;11.20;99.90;;;;;;5035250;28;20449;-67
2023/08/29 04:02:07;;;;;;;8.10;5.00;;;11.20;99.90;;;;;;5049295;28;20535;-73
2023/08/29 04:04:34;;;;;;;7.13;5.07;;;11.20;99.90;;;;;;5053732;28;20174;-73
2023/08/29 04:07:00;;;;;;;5.33;4.73;;;11.20;99.90;;;;;;5048099;28;20479;-66
2023/08/29 04:09:25;;;;;;;5.70;5.20;;;11.20;99.90;;;;;;5034343;28;20552;-68
2023/08/29 04:11:51;;;;;;;4.47;4.10;;;11.20;99.90;;;;;;5035245;28;20541;-67
2023/08/29 04:14:17;;;;;;;6.30;5.03;;;11.20;99.90;;;;;;5034862;28;20199;-67
2023/08/29 04:16:44;;;;;;;4.70;4.30;;;11.20;99.90;;;;;;5034141;28;20170;-72
2023/08/29 04:19:11;;;;;;;5.33;4.83;;;11.20;99.90;;;;;;5048339;28;20221;-73
2023/08/29 04:21:36;;;;;;;5.67;4.97;;;11.20;99.90;;;;;;5032695;28;20982;-73
2023/08/29 04:24:02;;;;;;;4.40;4.10;;;11.20;99.90;;;;;;5034936;28;20485;-73
2023/08/29 04:26:28;;;;;;;6.13;5.63;;;11.20;99.90;;;;;;5039024;28;20175;-68
2023/08/29 04:28:54;;;;;;;6.47;5.30;;;11.20;99.90;;;;;;5033704;28;20209;-66
2023/08/29 04:31:20;;;;;;;6.27;5.73;;;11.20;99.90;;;;;;5034762;28;20916;-74
2023/08/29 04:33:46;;;;;;;6.20;5.60;;;11.20;99.90;;;;;;5035059;28;20207;-67
2023/08/29 04:36:18;;;;;;;6.50;5.67;;;11.20;99.90;;;;;;5046803;28;20755;-73
2023/08/29 04:38:48;;;;;;;6.67;5.53;;;11.10;99.90;;;;;;5053227;28;20478;-68
2023/08/29 04:41:14;;;;;;;6.70;6.10;;;11.10;99.90;;;;;;5049402;28;20397;-68
2023/08/29 04:43:40;;;;;;;6.80;6.20;;;11.10;99.90;;;;;;5033963;28;20405;-67
2023/08/29 04:46:08;;;;;;;5.97;5.47;;;11.10;99.90;;;;;;5032296;28;20451;-73
2023/08/29 04:48:35;;;;;;;6.30;5.77;;;11.10;99.90;;;;;;5033985;28;20198;-67
2023/08/29 04:51:01;;;;;;;8.07;5.77;;;11.20;99.90;;;;;;5041768;28;20427;-73
2023/08/29 04:53:27;;;;;;;5.67;5.10;;;11.20;99.90;;;;;;5051793;28;20434;-70
2023/08/29 04:56:03;;;;;;;6.70;6.00;;;11.20;99.90;;;;;;5053338;28;20383;-67
2023/08/29 04:58:29;;;;;;;6.50;5.90;;;11.20;99.90;;;;;;5039017;28;20417;-74
2023/08/29 05:00:56;;;;;;;6.80;6.20;;;11.30;99.90;;;;;;5034133;28;20464;-67
2023/08/29 05:03:22;;;;;;;6.30;5.70;;;11.30;99.90;;;;;;5033150;28;20771;-69
2023/08/29 05:05:48;;;;;;;9.13;6.63;;;11.30;99.90;;;;;;5039048;28;20437;-69
2023/08/29 05:08:14;;;;;;;7.67;6.77;;;11.40;99.90;;;;;;5033981;28;20804;-66
2023/08/29 05:10:43;;;;;;;6.63;6.03;;;11.50;99.90;;;;;;5034037;28;20476;-67
2023/08/29 05:13:10;;;;;;;6.57;6.00;;;11.50;99.90;;;;;;5036786;28;20518;-67
2023/08/29 05:15:35;;;;;;;6.17;5.67;;;11.50;99.90;;;;;;5045176;28;20396;-68
2023/08/29 05:18:01;;;;;;;6.43;5.93;;;11.60;99.90;;;;;;5050312;28;20826;-69
2023/08/29 05:20:27;;;;;;;6.27;5.63;;;11.70;99.90;;;;;;5049009;28;20626;-67
2023/08/29 05:22:53;;;;;;;8.50;7.80;;;11.70;99.90;;;;;;5033227;28;20671;-68
2023/08/29 05:25:18;;;;;;;8.23;6.47;;;11.70;99.90;;;;;;5041957;28;20309;-69
2023/08/29 05:27:44;;;;;;;5.50;5.10;;;11.80;99.90;;;;;;5049623;28;20205;-67
2023/08/29 05:30:10;;;;;;;6.13;5.57;;;11.80;99.90;;;;;;5033494;28;20273;-67
2023/08/29 05:32:39;;;;;;;6.23;5.63;;;11.80;99.90;;;;;;5033051;28;20198;-72
2023/08/29 05:35:06;;;;;;;6.67;6.17;;;11.90;99.90;;;;;;5035019;28;20430;-66
2023/08/29 05:37:32;;;;;;;6.93;6.40;;;12.00;99.90;;;;;;5032952;28;20410;-67
2023/08/29 05:39:58;;;;;;;7.57;6.13;;;12.00;99.90;;;;;;5050751;28;20936;-67
2023/08/29 05:42:23;;;;;;;6.07;5.57;;;12.10;99.90;;;;;;5053303;28;20627;-73
2023/08/29 05:44:49;;;;;;;7.53;6.40;;;12.20;99.90;;;;;;5032852;28;20183;-75
2023/08/29 05:47:15;;;;;;;6.10;5.50;;;12.30;99.90;;;;;;5032696;28;20564;-73
2023/08/29 05:49:40;;;;;;;6.47;5.97;;;12.40;99.90;;;;;;5051127;28;20174;-67
2023/08/29 05:52:06;;;;;;;6.50;5.97;;;12.40;99.90;;;;;;5052498;28;20174;-68
2023/08/29 05:54:36;;;;;;;10.73;6.63;;;12.50;99.90;;;;;;5039781;28;20518;-67
2023/08/29 05:57:02;;;;;;;7.87;7.07;;;12.50;99.90;;;;;;5030462;28;20167;-67
2023/08/29 05:59:28;;;;;;;7.97;7.03;;;12.60;99.90;;;;;;5032603;28;20443;-73
2023/08/29 06:01:54;;;;;;;10.30;7.97;;;12.60;99.90;;;;;;5033978;28;20466;-70
2023/08/29 06:04:20;;;;;;;9.10;8.20;;;12.70;99.90;;;;;;5032559;28;20186;-73
2023/08/29 06:06:47;;;;;;;7.70;7.00;;;12.80;99.90;;;;;;5043621;28;20516;-73
2023/08/29 06:09:13;;;;;;;8.13;7.43;;;12.80;99.90;;;;;;5032459;28;20206;-73
2023/08/29 06:11:39;;;;;;;7.80;7.00;;;12.90;99.90;;;;;;5033184;28;20393;-67
2023/08/29 06:14:05;;;;;;;7.30;6.60;;;12.90;99.90;;;;;;5031581;28;20203;-68
2023/08/29 06:16:31;;;;;;;8.00;7.30;;;13.00;99.90;;;;;;5040438;28;20400;-67
2023/08/29 06:18:57;;;;;;;11.10;8.07;;;13.00;99.90;;;;;;5050632;28;20449;-74
2023/08/29 06:21:22;;;;;;;9.90;8.53;;;13.10;99.90;;;;;;5052894;28;20159;-68
2023/08/29 06:23:48;;;;;;;8.80;8.03;;;13.20;99.90;;;;;;5052859;28;20171;-74
2023/08/29 06:26:15;;;;;;;11.40;9.70;;;13.20;99.90;;;;;;5051909;28;20254;-75
2023/08/29 06:28:41;;;;;;;13.10;11.27;;;13.30;99.90;;;;;;5044942;28;20797;-70
2023/08/29 06:31:08;;;;;;;13.47;12.00;;;13.30;99.90;;;;;;5047559;28;20440;-68
2023/08/29 06:33:37;;;;;;;15.37;13.47;;;13.40;99.90;;;;;;5051865;28;20437;-71
2023/08/29 06:36:03;;;;;;;13.60;12.00;;;13.50;99.90;;;;;;5051786;28;20368;-68
2023/08/29 06:38:30;;;;;;;12.60;11.20;;;13.60;99.90;;;;;;5052607;28;20425;-67
2023/08/29 06:40:57;;;;;;;12.97;11.23;;;13.70;99.90;;;;;;5051318;28;20193;-67
2023/08/29 06:43:24;;;;;;;14.17;11.10;;;13.80;99.90;;;;;;5045586;28;20430;-74
2023/08/29 06:45:50;;;;;;;12.83;10.70;;;13.90;99.90;;;;;;5034100;28;20488;-73
2023/08/29 06:48:16;;;;;;;10.77;9.40;;;14.00;99.90;;;;;;5035172;28;20445;-74
2023/08/29 06:50:41;;;;;;;16.00;9.90;;;14.00;99.90;;;;;;5052359;28;20704;-72
2023/08/29 06:53:07;;;;;;;14.43;10.30;;;14.10;99.90;;;;;;5051777;28;20282;-72
2023/08/29 06:55:35;;;;;;;11.07;10.00;;;14.20;1.00;;;;;;5050227;28;20171;-72
2023/08/29 06:58:04;;;;;;;11.93;10.10;;;14.20;1.00;;;;;;5050417;28;20435;-74
2023/08/29 07:00:31;;;;;;;14.37;9.90;;;14.30;1.00;;;;;;5050818;28;20511;-75
2023/08/29 07:02:57;;;;;;;12.27;9.80;;;14.40;1.00;;;;;;5039755;28;20949;-70
2023/08/29 07:05:23;;;;;;;13.37;11.00;;;14.40;1.00;;;;;;5051564;28;20486;-67
2023/08/29 07:07:49;;;;;;;14.67;10.03;;;14.40;1.00;;;;;;5056119;28;20841;-74
2023/08/29 07:10:15;;;;;;;11.93;10.73;;;14.50;1.00;;;;;;5056210;28;20171;-73
2023/08/29 07:12:42;;;;;;;12.90;9.43;;;14.50;1.00;;;;;;5055391;28;20222;-68
2023/08/29 07:15:08;;;;;;;14.23;10.47;;;14.60;1.00;;;;;;5038678;28;20179;-74
2023/08/29 07:17:34;;;;;;;12.40;9.30;;;14.70;1.00;;;;;;5036108;28;20417;-72
2023/08/29 07:19:59;;;;;;;12.97;9.67;;;14.70;1.00;;;;;;5035632;28;20430;-66
2023/08/29 07:22:25;;;;;;;12.53;9.43;;;14.80;1.00;;;;;;5035977;28;20203;-67
2023/08/29 07:24:51;;;;;;;13.37;10.23;;;14.90;1.00;;;;;;5035766;28;20168;-67
2023/08/29 07:27:17;;;;;;;13.00;10.93;;;14.90;1.00;;;;;;5035258;28;20194;-74
2023/08/29 07:29:43;;;;;;;14.10;10.80;;;15.00;1.00;;;;;;5034463;28;20430;-66
2023/08/29 07:32:09;;;;;;;14.20;9.40;;;15.10;1.00;;;;;;5035666;28;20242;-66
2023/08/29 07:34:34;;;;;;;12.60;10.30;;;15.20;1.00;;;;;;5035856;28;20255;-74
2023/08/29 07:37:00;;;;;;;13.50;9.73;;;15.30;1.00;;;;;;5034771;28;20684;-74
2023/08/29 07:39:26;;;;;;;12.93;10.20;;;15.40;1.00;;;;;;5034401;28;20898;-74
2023/08/29 07:41:52;;;;;;;15.27;10.00;;;15.50;1.00;;;;;;5035845;28;20167;-67
2023/08/29 07:44:17;;;;;;;15.17;9.23;;;15.60;1.00;;;;;;5034943;28;20183;-68
2023/08/29 07:46:43;;;;;;;11.23;10.10;;;15.60;1.00;;;;;;5034187;28;20290;-74
2023/08/29 07:49:20;;;;;;;9.33;8.43;;;15.70;1.00;;;;;;5034110;28;20196;-74
2023/08/29 07:51:46;;;;;;;13.33;9.50;;;15.80;1.00;;;;;;5035503;28;20179;-71
2023/08/29 07:54:11;;;;;;;10.43;9.47;;;16.00;1.00;;;;;;5034125;28;20470;-67
2023/08/29 07:56:37;;;;;;;9.90;8.93;;;16.10;1.00;;;;;;5034707;28;20398;-73
2023/08/29 07:59:03;;;;;;;10.57;9.60;;;16.10;1.00;;;;;;5034680;28;20202;-74
2023/08/29 08:01:29;;;;;;;12.23;8.97;;;16.20;1.00;;;;;;5046516;28;20175;-74
2023/08/29 08:03:55;;;;;;;10.53;8.50;;;16.40;1.00;;;;;;5053593;28;20933;-74
2023/08/29 08:06:20;;;;;;;8.73;7.80;;;16.50;1.00;;;;;;5054069;28;20167;-67
2023/08/29 08:08:46;;;;;;;6.93;6.33;;;16.60;1.00;;;;;;5055109;28;20186;-73
2023/08/29 08:11:12;;;;;;;6.77;6.17;;;16.70;1.00;;;;;;5055110;28;20174;-73
2023/08/29 08:13:37;;;;;;;5.60;5.20;;;16.80;99.90;;;;;;5036837;28;20592;-66
2023/08/29 08:16:04;;;;;;;5.73;5.13;;;16.90;99.90;;;;;;5032788;28;20183;-67
2023/08/29 08:18:29;;;;;;;6.83;6.23;;;17.00;99.90;;;;;;5034975;28;20187;-74
2023/08/29 08:20:55;;;;;;;5.77;5.27;;;17.00;99.90;;;;;;5035077;28;20902;-68
2023/08/29 08:23:21;;;;;;;4.70;4.37;;;17.00;99.90;;;;;;5033731;28;20636;-73
2023/08/29 08:25:47;;;;;;;5.30;4.77;;;17.10;99.90;;;;;;5033210;28;20229;-67
2023/08/29 08:28:13;;;;;;;5.10;4.50;;;17.20;99.90;;;;;;5034362;28;20204;-73
2023/08/29 08:30:39;;;;;;;3.37;3.10;;;17.30;99.90;;;;;;5034758;28;20191;-73
2023/08/29 08:33:05;;;;;;;3.57;3.27;;;17.30;99.90;;;;;;5034657;28;20477;-72
2023/08/29 08:35:32;;;;;;;9.37;4.00;;;17.10;99.90;;;;;;5032688;28;20414;-68
2023/08/29 08:37:57;;;;;;;6.30;4.37;;;16.90;99.90;;;;;;5039550;28;20453;-74
2023/08/29 08:40:23;;;;;;;4.63;4.10;;;16.90;99.90;;;;;;5053882;28;20904;-67
2023/08/29 08:42:49;;;;;;;13.87;4.70;;;16.90;99.90;;;;;;5038031;28;20644;-72
2023/08/29 08:45:16;;;;;;;5.47;3.60;;;17.00;99.90;;;;;;5033700;28;20203;-67
2023/08/29 08:47:42;;;;;;;6.87;3.57;;;17.10;99.90;;;;;;5034247;28;20263;-67
2023/08/29 08:50:09;;;;;;;3.60;1.97;;;17.30;99.90;;;;;;5044247;28;20531;-73
2023/08/29 08:52:36;;;;;;;2.60;1.73;;;17.20;99.90;;;;;;5054415;28;20451;-73
2023/08/29 08:55:02;;;;;;;1.90;1.80;;;17.10;99.90;;;;;;5042451;28;20791;-75
2023/08/29 08:57:28;;;;;;;2.90;2.53;;;17.30;99.90;;;;;;5037210;28;20437;-67
2023/08/29 08:59:54;;;;;;;2.97;2.70;;;17.30;99.90;;;;;;5042969;28;20794;-70
2023/08/29 09:02:20;;;;;;;2.80;1.93;;;17.40;99.90;;;;;;5054110;28;20221;-66
2023/08/29 09:04:46;;;;;;;1.60;1.50;;;17.50;99.90;;;;;;5052903;28;20499;-68
2023/08/29 09:07:12;;;;;;;1.57;1.47;;;17.50;99.90;;;;;;5052198;28;21285;-74
2023/08/29 09:09:37;;;;;;;5.47;2.17;;;17.60;99.90;;;;;;5053051;28;20266;-74
2023/08/29 09:12:03;;;;;;;1.50;1.40;;;17.60;99.90;;;;;;5040401;28;20176;-73
2023/08/29 09:14:31;;;;;;;2.27;1.93;;;17.80;99.90;;;;;;5033888;28;20191;-67
2023/08/29 09:16:59;;;;;;;3.33;2.00;;;17.70;99.90;;;;;;5031091;28;20402;-73
2023/08/29 09:19:29;;;;;;;3.47;2.20;;;17.60;99.90;;;;;;5040775;28;20925;-73
2023/08/29 09:21:55;;;;;;;2.60;2.13;;;17.60;99.90;;;;;;5051985;28;20516;-66
2023/08/29 09:24:33;;;;;;;1.63;1.53;;;17.80;99.90;;;;;;5053902;28;20444;-67
2023/08/29 09:26:59;;;;;;;2.90;2.43;;;17.80;99.90;;;;;;5040955;28;20434;-74
2023/08/29 09:29:26;;;;;;;4.27;2.40;;;17.70;99.90;;;;;;5033632;28;20390;-67
2023/08/29 09:31:52;;;;;;;2.33;2.00;;;17.70;99.90;;;;;;5033180;28;20430;-68
2023/08/29 09:34:30;;;;;;;3.00;2.17;;;17.60;99.90;;;;;;5032765;28;20461;-74
2023/08/29 09:36:57;;;;;;;3.20;2.27;;;17.50;99.90;;;;;;5032503;28;20164;-74
2023/08/29 09:39:23;;;;;;;1.90;1.80;;;17.30;99.90;;;;;;5033531;28;20493;-66
2023/08/29 09:42:07;;;;;;;4.03;1.80;;;17.40;99.90;;;;;;5038271;28;20422;-66
2023/08/29 09:44:40;;;;;;;4.13;2.13;;;17.50;99.90;;;;;;5052389;28;20433;-66
2023/08/29 09:47:07;;;;;;;1.83;1.70;;;17.60;99.90;;;;;;5052234;28;20484;-72
2023/08/29 09:49:48;;;;;;;3.43;1.90;;;17.50;99.90;;;;;;5045423;28;20432;-67
2023/08/29 09:52:15;;;;;;;2.37;1.50;;;17.50;99.90;;;;;;5052411;28;20409;-68
2023/08/29 09:54:52;;;;;;;2.00;1.90;;;17.60;99.90;;;;;;5053396;28;20426;-73
2023/08/29 09:57:21;;;;;;;2.13;1.80;;;17.70;99.90;;;;;;5041470;28;20437;-67
2023/08/29 09:59:48;;;;;;;1.80;1.70;;;17.90;99.90;;;;;;5033227;28;20430;-72
2023/08/29 10:02:18;;;;;;;1.97;1.47;;;18.00;99.90;;;;;;5036012;28;20425;-73
2023/08/29 10:04:48;;;;;;;3.10;1.60;;;18.00;99.90;;;;;;5053174;28;20809;-73
2023/08/29 10:07:18;;;;;;;1.60;1.50;;;18.00;99.90;;;;;;5052129;28;20767;-72
2023/08/29 10:09:44;;;;;;;1.90;1.30;;;18.00;99.90;;;;;;5052489;28;20485;-72
2023/08/29 10:12:11;;;;;;;5.73;2.10;;;18.10;99.90;;;;;;5039798;28;20430;-73
2023/08/29 10:14:38;;;;;;;2.50;1.70;;;18.10;99.90;;;;;;5032893;28;20421;-72
2023/08/29 10:17:06;;;;;;;2.27;2.07;;;18.30;99.90;;;;;;5031970;28;20415;-67
2023/08/29 10:19:33;;;;;;;2.20;1.43;;;18.40;99.90;;;;;;5032556;28;20433;-68
2023/08/29 10:22:01;;;;;;;1.83;1.37;;;18.40;99.90;;;;;;5032999;28;20448;-72
2023/08/29 10:24:27;;;;;;;1.60;1.50;;;18.50;99.90;;;;;;5032846;28;20386;-67
2023/08/29 10:26:53;;;;;;;1.53;1.43;;;18.60;99.90;;;;;;5036063;28;20422;-73
2023/08/29 10:29:20;;;;;;;1.70;1.60;;;18.80;99.90;;;;;;5032516;28;20903;-73
2023/08/29 10:31:46;;;;;;;2.50;1.47;;;19.00;95.30;;;;;;5032904;28;20386;-67
2023/08/29 10:34:13;;;;;;;3.03;2.00;;;19.10;79.60;;;;;;5031582;28;20531;-73
2023/08/29 10:36:39;;;;;;;1.60;1.20;;;19.50;80.10;;;;;;5041297;28;20452;-66
2023/08/29 10:39:09;;;;;;;1.77;1.30;;;19.60;50.40;;;;;;5056806;28;20413;-73
2023/08/29 10:41:48;;;;;;;1.67;1.50;;;19.70;12.30;;;;;;5041521;28;20778;-74
2023/08/29 10:44:32;;;;;;;1.43;1.10;;;19.90;1.00;;;;;;5036755;28;20390;-68
2023/08/29 10:47:36;;;;;;;2.23;1.13;;;20.10;1.00;;;;;;5035183;28;20452;-67
2023/08/29 10:50:07;;;;;;;3.13;1.00;;;20.40;1.00;;;;;;5036807;28;20418;-70
2023/08/29 10:52:39;;;;;;;1.30;1.20;;;20.70;1.00;;;;;;5037109;28;20460;-67
2023/08/29 10:55:22;;;;;;;2.50;1.20;;;21.20;1.00;;;;;;5037816;28;20484;-73
2023/08/29 10:57:49;;;;;;;3.00;1.23;;;21.40;1.00;;;;;;5041467;28;20792;-70
2023/08/29 11:00:51;;;;;;;1.33;1.03;;;21.40;1.00;;;;;;5036566;28;20875;-74
2023/08/29 11:03:40;;;;;;;1.70;1.60;;;21.30;1.00;;;;;;5036450;28;20406;-68
2023/08/29 11:06:06;;;;;;;1.23;1.00;;;21.20;1.00;;;;;;5035170;28;20486;-69
2023/08/29 11:08:32;;;;;;;1.83;1.30;;;21.50;1.00;;;;;;5035610;28;20432;-71
2023/08/29 11:11:13;;;;;;;2.83;1.47;;;22.00;1.00;;;;;;5036626;28;20524;-67
2023/08/29 11:14:08;;;;;;;2.37;1.20;;;22.00;1.00;;;;;;5041373;28;20676;-73
2023/08/29 11:16:36;;;;;;;3.00;1.20;;;21.70;1.00;;;;;;5035271;28;20410;-73
2023/08/29 11:19:10;;;;;;;4.60;1.63;;;21.40;1.00;;;;;;5036048;28;20422;-67
2023/08/29 11:21:36;;;;;;;3.23;1.40;;;21.40;1.00;;;;;;5035998;28;20448;-67
2023/08/29 11:24:05;;;;;;;4.60;1.43;;;21.50;1.00;;;;;;5035614;28;20927;-73
2023/08/29 11:26:36;;;;;;;1.97;1.60;;;21.30;1.00;;;;;;5035436;28;20421;-68
2023/08/29 11:29:05;;;;;;;2.07;1.10;;;21.20;1.00;;;;;;5035765;28;20452;-73
2023/08/29 11:31:32;;;;;;;3.83;1.10;;;21.40;1.00;;;;;;5036125;28;20434;-73
2023/08/29 11:33:57;;;;;;;1.50;1.40;;;21.40;1.00;;;;;;5034581;28;20446;-67
2023/08/29 11:36:31;;;;;;;2.23;1.40;;;21.30;1.00;;;;;;5034963;28;20739;-66
2023/08/29 11:38:57;;;;;;;2.23;1.67;;;21.30;1.00;;;;;;5033454;28;20660;-66
2023/08/29 11:41:27;;;;;;;1.47;1.37;;;21.40;1.00;;;;;;5035299;28;20437;-70
2023/08/29 11:43:56;;;;;;;1.57;1.40;;;21.80;1.00;;;;;;5050483;28;20196;-71
2023/08/29 11:46:21;;;;;;;1.93;1.40;;;22.20;1.00;;;;;;5054656;28;20474;-70
2023/08/29 11:48:47;;;;;;;1.80;1.67;;;22.70;1.00;;;;;;5052975;28;20442;-69
2023/08/29 11:51:13;;;;;;;2.90;1.57;;;23.20;1.00;;;;;;5054248;28;20652;-73
2023/08/29 11:53:39;;;;;;;1.93;1.80;;;23.50;1.00;;;;;;5040624;28;20664;-73
2023/08/29 11:56:09;;;;;;;3.00;1.73;;;23.50;1.00;;;;;;5034301;28;20422;-69
2023/08/29 11:58:37;;;;;;;1.90;1.70;;;23.30;1.00;;;;;;5047221;28;20206;-69
2023/08/29 12:01:10;;;;;;;2.77;1.60;;;23.00;1.00;;;;;;5055005;28;20758;-75
2023/08/29 12:03:38;;;;;;;2.00;1.50;;;23.20;1.00;;;;;;5054825;28;20932;-76
2023/08/29 12:06:09;;;;;;;1.50;1.40;;;23.20;1.00;;;;;;5048258;28;20422;-76
2023/08/29 12:08:42;;;;;;;2.00;1.90;;;23.10;1.00;;;;;;5034125;28;20442;-69
2023/08/29 12:11:09;;;;;;;1.60;1.17;;;22.90;1.00;;;;;;5038447;28;20533;-76
2023/08/29 12:13:38;;;;;;;1.40;1.30;;;22.80;1.00;;;;;;5044871;28;21016;-76
2023/08/29 12:16:14;;;;;;;1.97;1.33;;;22.50;1.00;;;;;;5054189;28;20405;-71
2023/08/29 12:18:40;;;;;;;1.77;1.20;;;22.40;1.00;;;;;;5054301;28;20441;-69
2023/08/29 12:21:20;;;;;;;6.40;1.30;;;22.30;1.00;;;;;;5054836;28;20394;-70
2023/08/29 12:23:48;;;;;;;2.20;1.50;;;22.20;1.00;;;;;;5051378;28;20465;-74
2023/08/29 12:26:17;;;;;;;1.63;1.50;;;22.00;99.90;;;;;;5033560;28;20440;-71
2023/08/29 12:28:43;;;;;;;2.07;1.50;;;21.60;99.90;;;;;;5043727;28;20857;-77
2023/08/29 12:31:09;;;;;;;3.93;2.10;;;21.80;99.90;;;;;;5054706;28;20459;-75
2023/08/29 12:33:36;;;;;;;1.43;1.33;;;21.90;99.90;;;;;;5053807;28;20198;-76
2023/08/29 12:36:02;;;;;;;2.37;1.47;;;22.20;99.90;;;;;;5051987;28;20513;-76
2023/08/29 12:38:30;;;;;;;1.30;1.20;;;22.40;99.90;;;;;;5054489;28;20421;-77
2023/08/29 12:40:56;;;;;;;1.70;1.37;;;22.70;99.90;;;;;;5044421;28;20503;-74
2023/08/29 12:43:22;;;;;;;3.13;1.97;;;22.90;99.90;;;;;;5045247;28;20926;-77
2023/08/29 12:45:48;;;;;;;2.93;2.23;;;23.30;99.90;;;;;;5053559;28;20459;-77
2023/08/29 12:48:14;;;;;;;3.30;1.40;;;23.70;99.90;;;;;;5053120;28;20480;-72
2023/08/29 12:50:39;;;;;;;1.53;1.03;;;24.30;99.90;;;;;;5054402;28;20260;-69